Time;durP1;ratioP1;P1;durP2;ratioP2;P2;SDS_P1;SDS_P2;PMS_P1;PMS_P2;Temp;Humidity;BMP_temperature;BMP_pressure;BME280_temperature;BME280_humidity;BME280_pressure;Samples;Min_cycle;Max_cycle;Signal;HPM_P1;HPM_P2
2022/03/22 00:01:57;;;;;;;36.30;16.13;;;;;;;;;;5006199;28;20053;-70
2022/03/22 00:04:22;;;;;;;40.20;16.95;;;;;;;;;;4997862;28;20125;-70
2022/03/22 00:06:48;;;;;;;39.45;15.85;;;;;;;;;;5007732;28;20132;-70
2022/03/22 00:09:13;;;;;;;31.25;15.45;;;;;;;;;;5003505;28;20042;-70
2022/03/22 00:11:38;;;;;;;35.83;16.40;;;;;;;;;;5004918;28;20057;-70
2022/03/22 00:14:08;;;;;;;33.78;14.82;;;;;;;;;;5007941;28;20113;-70
2022/03/22 00:16:34;;;;;;;33.92;14.65;;;;;;;;;;5008728;28;20073;-70
2022/03/22 00:19:00;;;;;;;33.97;15.57;;;;;;;;;;5006617;28;20046;-70
2022/03/22 00:21:26;;;;;;;38.97;15.80;;;;;;;;;;4999155;28;20038;-70
2022/03/22 00:23:52;;;;;;;33.17;15.30;;;;;;;;;;5016721;28;20041;-70
2022/03/22 00:26:17;;;;;;;33.53;15.20;;;;;;;;;;5011847;28;20044;-70
2022/03/22 00:28:43;;;;;;;34.05;14.95;;;;;;;;;;5012040;28;20030;-70
2022/03/22 00:31:08;;;;;;;36.30;15.00;;;;;;;;;;5011426;28;20095;-70
2022/03/22 00:33:34;;;;;;;28.30;13.15;;;;;;;;;;5011985;28;20507;-69
2022/03/22 00:35:59;;;;;;;31.23;15.20;;;;;;;;;;5010688;28;20042;-70
2022/03/22 00:38:26;;;;;;;35.33;14.88;;;;;;;;;;5001925;28;20032;-70
2022/03/22 00:40:52;;;;;;;28.58;14.73;;;;;;;;;;5011335;28;20077;-70
2022/03/22 00:43:18;;;;;;;31.00;14.75;;;;;;;;;;5012050;28;20192;-70
2022/03/22 00:45:43;;;;;;;42.80;15.68;;;;;;;;;;5010957;28;20049;-70
2022/03/22 00:48:13;;;;;;;32.05;14.23;;;;;;;;;;5011546;28;20073;-70
2022/03/22 00:50:43;;;;;;;33.47;14.27;;;;;;;;;;5004646;28;20088;-69
2022/03/22 00:53:09;;;;;;;31.40;13.82;;;;;;;;;;5010397;28;20033;-70
2022/03/22 00:55:36;;;;;;;31.75;13.75;;;;;;;;;;5010020;28;20122;-70
2022/03/22 00:58:02;;;;;;;34.08;14.90;;;;;;;;;;5010102;28;20049;-70
2022/03/22 01:00:29;;;;;;;36.80;15.65;;;;;;;;;;5009500;28;20401;-70
2022/03/22 01:02:58;;;;;;;33.20;13.75;;;;;;;;;;5009725;28;20054;-70
2022/03/22 01:05:24;;;;;;;30.00;14.55;;;;;;;;;;5010900;28;20088;-70
2022/03/22 01:07:58;;;;;;;28.70;13.10;;;;;;;;;;5006580;28;20427;-70
2022/03/22 01:10:26;;;;;;;29.52;14.13;;;;;;;;;;5009107;28;20026;-70
2022/03/22 01:12:52;;;;;;;27.15;13.68;;;;;;;;;;4999155;28;20050;-70
2022/03/22 01:15:21;;;;;;;27.75;13.55;;;;;;;;;;4998196;28;20034;-70
2022/03/22 01:17:49;;;;;;;33.00;13.65;;;;;;;;;;5010498;28;20092;-70
2022/03/22 01:20:16;;;;;;;28.90;13.60;;;;;;;;;;5009131;28;20041;-70
2022/03/22 01:22:44;;;;;;;33.15;13.70;;;;;;;;;;5013442;28;20112;-70
2022/03/22 01:25:13;;;;;;;31.67;13.77;;;;;;;;;;5005457;28;20040;-70
2022/03/22 01:27:40;;;;;;;28.95;14.10;;;;;;;;;;5008375;28;20451;-70
2022/03/22 01:30:07;;;;;;;28.83;13.45;;;;;;;;;;5007673;28;20061;-70
2022/03/22 01:32:37;;;;;;;28.92;13.35;;;;;;;;;;5009337;28;20034;-70
2022/03/22 01:35:04;;;;;;;29.25;13.30;;;;;;;;;;5009847;28;20029;-70
2022/03/22 01:37:30;;;;;;;29.25;12.50;;;;;;;;;;5009264;28;20033;-70
2022/03/22 01:39:56;;;;;;;30.02;13.63;;;;;;;;;;4993144;28;20035;-70
2022/03/22 01:42:22;;;;;;;28.58;13.07;;;;;;;;;;5009623;28;20064;-70
2022/03/22 01:44:48;;;;;;;33.38;13.02;;;;;;;;;;5014442;28;20422;-70
2022/03/22 01:47:17;;;;;;;31.33;13.45;;;;;;;;;;5008290;28;20137;-70
2022/03/22 01:49:43;;;;;;;27.48;12.27;;;;;;;;;;4998795;28;20026;-70
2022/03/22 01:52:14;;;;;;;28.80;12.73;;;;;;;;;;5012017;28;20038;-70
2022/03/22 01:54:39;;;;;;;29.48;12.00;;;;;;;;;;4995828;28;20129;-70
2022/03/22 01:57:07;;;;;;;26.05;12.02;;;;;;;;;;5005574;28;20125;-70
2022/03/22 01:59:33;;;;;;;27.23;11.68;;;;;;;;;;5009320;28;20040;-70
2022/03/22 02:07:31;;;;;;;24.02;11.05;;;;;;;;;;5004953;28;20056;-70
2022/03/22 02:09:57;;;;;;;29.67;12.20;;;;;;;;;;4999279;28;20499;-70
2022/03/22 02:12:23;;;;;;;26.88;11.45;;;;;;;;;;5004076;28;20038;-70
2022/03/22 02:14:48;;;;;;;24.13;10.57;;;;;;;;;;5009813;28;20030;-70
2022/03/22 02:17:14;;;;;;;26.27;10.93;;;;;;;;;;5008019;28;20511;-70
2022/03/22 02:19:39;;;;;;;21.70;10.32;;;;;;;;;;5003593;28;20033;-70
2022/03/22 02:22:08;;;;;;;22.50;10.13;;;;;;;;;;5001755;28;20124;-70
2022/03/22 02:24:34;;;;;;;24.35;9.75;;;;;;;;;;5006577;28;20049;-70
2022/03/22 02:27:00;;;;;;;26.13;11.13;;;;;;;;;;5009270;28;20056;-70
2022/03/22 02:29:25;;;;;;;20.88;9.52;;;;;;;;;;4999534;28;20112;-70
2022/03/22 02:31:53;;;;;;;22.80;9.48;;;;;;;;;;4996614;28;20034;-70
2022/03/22 02:34:19;;;;;;;20.67;8.77;;;;;;;;;;5004404;28;20096;-70
2022/03/22 02:36:44;;;;;;;19.52;8.90;;;;;;;;;;4991270;28;20467;-70
2022/03/22 02:39:10;;;;;;;22.77;8.23;;;;;;;;;;5002918;28;20064;-70
2022/03/22 02:41:35;;;;;;;18.75;9.15;;;;;;;;;;5009102;28;20634;-70
2022/03/22 02:44:01;;;;;;;21.67;9.60;;;;;;;;;;5009263;28;20076;-70
2022/03/22 02:46:26;;;;;;;17.90;9.23;;;;;;;;;;5009476;28;20037;-70
2022/03/22 02:48:51;;;;;;;16.05;8.98;;;;;;;;;;5009336;28;20044;-70
2022/03/22 02:51:17;;;;;;;22.17;9.68;;;;;;;;;;5012006;28;20062;-70
2022/03/22 02:53:42;;;;;;;18.35;8.80;;;;;;;;;;5008256;28;20108;-69
2022/03/22 02:56:08;;;;;;;22.98;9.88;;;;;;;;;;5009293;28;20026;-70
2022/03/22 02:58:33;;;;;;;18.17;8.85;;;;;;;;;;5008162;28;20021;-70
2022/03/22 03:01:00;;;;;;;18.77;8.82;;;;;;;;;;5008241;28;20479;-70
2022/03/22 03:03:25;;;;;;;27.95;11.00;;;;;;;;;;5008631;28;20096;-70
2022/03/22 03:05:51;;;;;;;29.08;10.60;;;;;;;;;;5006217;28;20038;-70
2022/03/22 03:08:17;;;;;;;26.42;10.43;;;;;;;;;;5006848;28;20035;-70
2022/03/22 03:10:43;;;;;;;20.50;8.88;;;;;;;;;;4992502;28;20065;-71
2022/03/22 03:13:09;;;;;;;18.85;9.25;;;;;;;;;;4999285;28;20058;-70
2022/03/22 03:15:34;;;;;;;24.77;9.13;;;;;;;;;;5006039;28;20061;-70
2022/03/22 03:18:00;;;;;;;18.05;8.43;;;;;;;;;;5008484;28;20566;-70
2022/03/22 03:20:26;;;;;;;20.45;9.20;;;;;;;;;;5000356;28;20044;-70
2022/03/22 03:22:51;;;;;;;17.42;8.43;;;;;;;;;;5004146;28;20030;-70
2022/03/22 03:25:18;;;;;;;23.08;8.85;;;;;;;;;;5006570;28;20026;-70
2022/03/22 03:27:44;;;;;;;17.38;7.93;;;;;;;;;;5009050;28;20108;-69
2022/03/22 03:30:09;;;;;;;16.45;7.95;;;;;;;;;;5008657;28;20041;-70
2022/03/22 03:32:35;;;;;;;19.05;8.32;;;;;;;;;;5008633;28;20030;-70
2022/03/22 03:35:01;;;;;;;16.15;7.72;;;;;;;;;;5008742;28;20032;-70
2022/03/22 03:37:30;;;;;;;14.13;7.72;;;;;;;;;;5000280;28;20049;-70
2022/03/22 03:39:55;;;;;;;18.52;8.32;;;;;;;;;;5002594;28;20044;-70
2022/03/22 03:42:21;;;;;;;20.88;8.68;;;;;;;;;;5002609;28;20043;-70
2022/03/22 03:47:30;;;;;;;21.55;8.90;;;;;;;;;;5011226;28;20048;-70
2022/03/22 03:49:58;;;;;;;18.63;8.30;;;;;;;;;;5008827;28;20473;-69
2022/03/22 03:52:36;;;;;;;21.75;8.77;;;;;;;;;;5028881;28;20017;-70
2022/03/22 03:55:06;;;;;;;22.33;8.70;;;;;;;;;;5013362;28;20030;-70
2022/03/22 03:57:32;;;;;;;21.58;8.15;;;;;;;;;;5009731;28;20578;-70
2022/03/22 03:59:58;;;;;;;18.33;8.30;;;;;;;;;;5009386;28;20038;-70
2022/03/22 04:02:23;;;;;;;19.30;8.82;;;;;;;;;;5011450;28;20133;-70
2022/03/22 04:04:52;;;;;;;15.27;7.97;;;;;;;;;;5011933;28;20065;-70
2022/03/22 04:07:19;;;;;;;16.63;8.45;;;;;;;;;;5010020;28;20049;-70
2022/03/22 04:09:45;;;;;;;18.60;8.50;;;;;;;;;;5009196;28;20042;-70
2022/03/22 04:12:12;;;;;;;21.17;8.68;;;;;;;;;;5011717;28;20431;-70
2022/03/22 04:14:37;;;;;;;16.23;7.93;;;;;;;;;;5010426;28;20038;-70
2022/03/22 04:17:04;;;;;;;16.58;8.38;;;;;;;;;;5009431;28;20088;-70
2022/03/22 04:19:29;;;;;;;16.63;8.73;;;;;;;;;;5002848;28;20106;-70
2022/03/22 04:21:54;;;;;;;15.50;7.60;;;;;;;;;;5011826;28;20477;-70
2022/03/22 04:24:20;;;;;;;14.48;7.95;;;;;;;;;;5019852;28;20515;-70
2022/03/22 04:26:46;;;;;;;19.13;8.00;;;;;;;;;;5010425;28;20582;-70
2022/03/22 04:34:42;;;;;;;22.02;8.32;;;;;;;;;;5006166;28;20188;-70
2022/03/22 04:37:12;;;;;;;19.10;7.97;;;;;;;;;;5005116;28;20034;-70
2022/03/22 04:39:39;;;;;;;17.58;8.00;;;;;;;;;;5009004;28;20041;-70
2022/03/22 04:42:05;;;;;;;19.58;8.27;;;;;;;;;;5006865;28;20041;-70
2022/03/22 04:44:30;;;;;;;21.02;9.43;;;;;;;;;;5011518;28;20034;-70
2022/03/22 04:46:56;;;;;;;17.48;8.40;;;;;;;;;;5011287;28;20030;-70
2022/03/22 04:49:22;;;;;;;15.88;8.07;;;;;;;;;;4997498;28;20507;-70
2022/03/22 04:57:16;;;;;;;18.83;7.65;;;;;;;;;;5003767;28;20052;-70
2022/03/22 04:59:43;;;;;;;17.83;8.07;;;;;;;;;;5011234;28;20034;-70
2022/03/22 05:02:09;;;;;;;18.67;8.55;;;;;;;;;;5007873;28;20049;-70
2022/03/22 05:04:35;;;;;;;17.95;8.25;;;;;;;;;;5003229;28;20034;-70
2022/03/22 05:07:00;;;;;;;23.05;8.48;;;;;;;;;;5001135;28;20030;-70
2022/03/22 05:09:28;;;;;;;21.52;7.68;;;;;;;;;;5009216;28;20566;-70
2022/03/22 05:11:54;;;;;;;20.77;8.40;;;;;;;;;;5005961;28;20670;-70
2022/03/22 05:14:19;;;;;;;19.27;8.90;;;;;;;;;;5009979;28;20061;-70
2022/03/22 05:16:45;;;;;;;19.45;8.20;;;;;;;;;;5008542;28;20025;-70
2022/03/22 05:19:12;;;;;;;18.35;8.13;;;;;;;;;;5005622;28;20050;-70
2022/03/22 05:21:38;;;;;;;14.95;7.78;;;;;;;;;;4990545;28;20046;-70
2022/03/22 05:24:04;;;;;;;20.15;8.50;;;;;;;;;;4999985;28;20049;-70
2022/03/22 05:26:29;;;;;;;16.23;8.05;;;;;;;;;;5007644;28;20503;-70
2022/03/22 05:28:55;;;;;;;18.58;7.90;;;;;;;;;;5007513;28;20033;-70
2022/03/22 05:31:21;;;;;;;17.60;8.60;;;;;;;;;;5008253;28;20037;-70
2022/03/22 05:33:48;;;;;;;15.98;8.10;;;;;;;;;;5009665;28;20058;-70
2022/03/22 05:36:13;;;;;;;20.45;8.70;;;;;;;;;;5008402;28;20041;-70
2022/03/22 05:38:38;;;;;;;15.90;7.78;;;;;;;;;;5003515;28;20698;-70
2022/03/22 05:41:04;;;;;;;20.17;9.27;;;;;;;;;;5010177;28;20400;-70
2022/03/22 05:43:30;;;;;;;25.33;9.15;;;;;;;;;;5008291;28;20010;-70
2022/03/22 05:45:56;;;;;;;15.18;8.07;;;;;;;;;;5002793;28;20038;-70
2022/03/22 05:48:23;;;;;;;19.33;8.73;;;;;;;;;;5005760;28;20042;-70
2022/03/22 05:50:49;;;;;;;18.48;8.40;;;;;;;;;;5005677;28;20054;-70
2022/03/22 05:53:15;;;;;;;18.25;8.63;;;;;;;;;;5001841;28;20523;-70
2022/03/22 05:55:41;;;;;;;19.35;8.60;;;;;;;;;;5000824;28;20037;-70
2022/03/22 05:58:07;;;;;;;20.23;8.85;;;;;;;;;;5004758;28;20092;-70
2022/03/22 06:00:33;;;;;;;18.45;8.30;;;;;;;;;;4998392;28;20054;-70
2022/03/22 06:02:59;;;;;;;21.85;8.55;;;;;;;;;;5000378;28;20092;-70
2022/03/22 06:05:25;;;;;;;16.90;7.78;;;;;;;;;;5004291;28;20034;-71
2022/03/22 06:07:50;;;;;;;17.17;8.40;;;;;;;;;;5004462;28;20136;-70
2022/03/22 06:10:16;;;;;;;21.63;8.73;;;;;;;;;;5006649;28;20061;-70
2022/03/22 06:12:45;;;;;;;18.65;8.35;;;;;;;;;;5003846;28;20077;-70
2022/03/22 06:15:26;;;;;;;17.88;8.45;;;;;;;;;;5007197;28;20042;-71
2022/03/22 06:17:56;;;;;;;22.23;8.77;;;;;;;;;;4992051;28;20042;-70
2022/03/22 06:20:26;;;;;;;23.80;9.60;;;;;;;;;;5005007;28;20042;-70
2022/03/22 06:22:52;;;;;;;17.20;7.68;;;;;;;;;;5002859;28;20030;-70
2022/03/22 06:25:18;;;;;;;24.10;9.75;;;;;;;;;;5004562;28;20080;-70
2022/03/22 06:27:46;;;;;;;17.73;9.18;;;;;;;;;;5010024;28;20041;-71
2022/03/22 06:30:13;;;;;;;22.65;9.82;;;;;;;;;;5007059;28;20080;-71
2022/03/22 06:32:46;;;;;;;22.92;10.27;;;;;;;;;;5005014;28;20037;-70
2022/03/22 06:35:12;;;;;;;;;;;;;;;;;;5005466;28;20113;-72
2022/03/22 06:37:38;;;;;;;24.52;10.63;;;;;;;;;;5005295;28;19942;-71
2022/03/22 06:40:05;;;;;;;22.42;9.20;;;;;;;;;;5005883;28;20997;-71
2022/03/22 06:42:31;;;;;;;27.10;10.35;;;;;;;;;;5004686;28;20038;-71
2022/03/22 06:44:56;;;;;;;24.23;10.57;;;;;;;;;;5009563;28;20534;-71
2022/03/22 06:47:23;;;;;;;24.50;10.32;;;;;;;;;;5006861;28;20036;-71
2022/03/22 06:49:48;;;;;;;21.38;10.07;;;;;;;;;;5006651;28;20037;-71
2022/03/22 06:52:13;;;;;;;21.60;10.15;;;;;;;;;;5017393;28;20041;-71
2022/03/22 06:54:39;;;;;;;21.05;10.05;;;;;;;;;;5004576;28;20188;-71
2022/03/22 06:57:05;;;;;;;20.80;9.23;;;;;;;;;;4995117;28;20034;-71
2022/03/22 06:59:31;;;;;;;24.08;10.73;;;;;;;;;;5000348;28;20041;-71
2022/03/22 07:01:56;;;;;;;22.85;10.93;;;;;;;;;;4996280;28;20053;-71
2022/03/22 07:04:21;;;;;;;24.20;11.38;;;;;;;;;;5005043;28;20117;-71
2022/03/22 07:06:47;;;;;;;21.65;10.15;;;;;;;;;;5006032;28;20549;-71
2022/03/22 07:09:12;;;;;;;23.90;10.55;;;;;;;;;;5005347;28;20451;-71
2022/03/22 07:11:49;;;;;;;22.10;9.63;;;;;;;;;;5004712;28;20396;-71
2022/03/22 07:14:16;;;;;;;20.38;10.43;;;;;;;;;;5001566;28;20095;-71
2022/03/22 07:16:42;;;;;;;23.92;10.35;;;;;;;;;;5005085;28;20030;-71
2022/03/22 07:19:07;;;;;;;22.33;9.52;;;;;;;;;;5003470;28;20084;-71
2022/03/22 07:21:33;;;;;;;22.55;10.00;;;;;;;;;;5003596;28;20566;-71
2022/03/22 07:23:58;;;;;;;27.15;9.65;;;;;;;;;;5005212;28;20523;-71
2022/03/22 07:26:23;;;;;;;24.52;10.63;;;;;;;;;;5004745;28;20099;-71
2022/03/22 07:28:49;;;;;;;26.70;10.57;;;;;;;;;;5004736;28;20091;-70
2022/03/22 07:31:14;;;;;;;23.60;10.50;;;;;;;;;;5006146;28;20495;-71
2022/03/22 07:33:39;;;;;;;23.65;10.70;;;;;;;;;;5006308;28;20420;-71
2022/03/22 07:36:05;;;;;;;23.90;10.27;;;;;;;;;;5005128;28;20038;-71
2022/03/22 07:38:31;;;;;;;25.35;11.55;;;;;;;;;;5000020;28;20041;-71
2022/03/22 07:40:56;;;;;;;24.98;10.73;;;;;;;;;;5005778;28;20030;-71
2022/03/22 07:43:22;;;;;;;25.35;10.77;;;;;;;;;;5005796;28;20022;-71
2022/03/22 07:45:48;;;;;;;32.92;10.68;;;;;;;;;;5004152;28;20036;-71
2022/03/22 07:48:14;;;;;;;23.65;10.75;;;;;;;;;;5005552;28;20050;-71
2022/03/22 07:53:23;;;;;;;24.02;10.93;;;;;;;;;;5008139;28;20045;-71
2022/03/22 07:55:48;;;;;;;26.30;11.30;;;;;;;;;;5003520;28;20109;-71
2022/03/22 07:58:14;;;;;;;23.08;10.75;;;;;;;;;;5004396;28;20026;-71
2022/03/22 08:00:41;;;;;;;24.25;11.07;;;;;;;;;;5005355;28;20046;-71
2022/03/22 08:03:10;;;;;;;24.17;11.18;;;;;;;;;;4994278;28;20046;-71
2022/03/22 08:05:37;;;;;;;24.85;11.18;;;;;;;;;;5002824;28;20052;-71
2022/03/22 08:08:03;;;;;;;25.92;11.48;;;;;;;;;;5003596;28;20041;-71
2022/03/22 08:10:30;;;;;;;27.23;11.15;;;;;;;;;;5004091;28;20030;-71
2022/03/22 08:12:56;;;;;;;29.52;12.05;;;;;;;;;;5003014;28;20185;-71
2022/03/22 08:15:21;;;;;;;29.25;13.50;;;;;;;;;;4996105;28;20077;-71
2022/03/22 08:17:46;;;;;;;31.30;13.82;;;;;;;;;;5002010;28;20049;-71
2022/03/22 08:20:13;;;;;;;32.65;13.80;;;;;;;;;;4999517;28;20464;-71
2022/03/22 08:22:51;;;;;;;31.15;14.05;;;;;;;;;;5006034;28;20041;-71
2022/03/22 08:25:30;;;;;;;40.53;16.38;;;;;;;;;;5004131;28;20042;-71
2022/03/22 08:27:57;;;;;;;35.67;15.93;;;;;;;;;;5006030;28;20180;-71
2022/03/22 08:30:23;;;;;;;37.55;15.68;;;;;;;;;;5000721;28;20693;-71
2022/03/22 08:32:53;;;;;;;36.60;16.80;;;;;;;;;;5005045;28;20038;-71
2022/03/22 08:35:19;;;;;;;37.25;16.27;;;;;;;;;;4999586;28;20053;-71
2022/03/22 08:37:45;;;;;;;39.15;17.75;;;;;;;;;;5004201;28;20026;-72
2022/03/22 08:40:13;;;;;;;37.78;16.90;;;;;;;;;;5006424;28;20132;-71
2022/03/22 08:42:43;;;;;;;41.92;17.98;;;;;;;;;;5007909;28;20584;-71
2022/03/22 08:45:12;;;;;;;40.67;18.05;;;;;;;;;;5006994;28;20042;-72
2022/03/22 08:47:40;;;;;;;36.70;17.77;;;;;;;;;;5006984;28;20507;-71
2022/03/22 08:50:07;;;;;;;40.28;17.95;;;;;;;;;;4999296;28;20046;-71
2022/03/22 08:52:32;;;;;;;46.00;19.85;;;;;;;;;;4999620;28;20049;-71
2022/03/22 08:54:58;;;;;;;48.25;21.10;;;;;;;;;;5003334;28;20034;-71
2022/03/22 08:57:23;;;;;;;46.67;20.70;;;;;;;;;;5007934;28;20084;-71
2022/03/22 08:59:48;;;;;;;44.22;20.25;;;;;;;;;;5007683;28;20634;-72
2022/03/22 09:02:14;;;;;;;45.67;20.70;;;;;;;;;;5006953;28;20061;-71
2022/03/22 09:07:23;;;;;;;48.85;20.65;;;;;;;;;;5007899;28;20054;-72
2022/03/22 09:09:48;;;;;;;44.42;19.40;;;;;;;;;;4991397;28;20075;-72
2022/03/22 09:12:14;;;;;;;45.05;19.60;;;;;;;;;;5006378;28;20042;-71
2022/03/22 09:14:39;;;;;;;40.17;18.35;;;;;;;;;;4996775;28;20050;-71
2022/03/22 09:17:05;;;;;;;38.03;17.38;;;;;;;;;;4992025;28;20049;-71
2022/03/22 09:19:30;;;;;;;43.33;17.02;;;;;;;;;;4998469;28;20034;-71
2022/03/22 09:21:56;;;;;;;40.38;16.65;;;;;;;;;;5001058;28;20030;-71
2022/03/22 09:24:21;;;;;;;34.70;15.30;;;;;;;;;;5001571;28;20077;-71
2022/03/22 09:26:47;;;;;;;31.27;13.60;;;;;;;;;;5004554;28;20046;-72
2022/03/22 09:29:12;;;;;;;27.00;13.50;;;;;;;;;;5005875;28;20495;-71
2022/03/22 09:31:38;;;;;;;32.08;13.52;;;;;;;;;;5003333;28;20033;-72
2022/03/22 09:34:03;;;;;;;35.05;15.02;;;;;;;;;;4997814;28;20776;-71
2022/03/22 09:36:28;;;;;;;31.00;13.20;;;;;;;;;;4998136;28;20041;-72
2022/03/22 09:38:54;;;;;;;31.65;14.45;;;;;;;;;;4999413;28;20045;-72
2022/03/22 09:41:21;;;;;;;34.20;16.25;;;;;;;;;;4998088;28;20041;-71
2022/03/22 09:43:48;;;;;;;34.85;15.95;;;;;;;;;;4992720;28;20092;-71
2022/03/22 09:46:18;;;;;;;33.70;15.18;;;;;;;;;;5004243;28;20034;-72
2022/03/22 09:48:45;;;;;;;36.17;14.32;;;;;;;;;;5000988;28;20523;-71
2022/03/22 09:53:55;;;;;;;31.38;14.30;;;;;;;;;;5007418;28;20095;-72
2022/03/22 09:56:21;;;;;;;34.00;13.80;;;;;;;;;;4995801;28;20038;-71
2022/03/22 09:58:48;;;;;;;36.80;14.45;;;;;;;;;;5006437;28;20037;-72
2022/03/22 10:01:13;;;;;;;30.45;13.07;;;;;;;;;;5005685;28;20054;-72
2022/03/22 10:03:39;;;;;;;35.13;14.13;;;;;;;;;;4999796;28;20045;-71
2022/03/22 10:06:06;;;;;;;32.05;13.65;;;;;;;;;;4995951;28;20535;-72
2022/03/22 10:08:31;;;;;;;27.20;12.88;;;;;;;;;;5000407;28;20110;-71
2022/03/22 10:11:00;;;;;;;26.48;12.82;;;;;;;;;;4998562;28;20061;-72
2022/03/22 10:13:27;;;;;;;29.17;12.32;;;;;;;;;;4993217;28;20526;-71
2022/03/22 10:16:04;;;;;;;29.45;12.57;;;;;;;;;;4999732;28;20048;-71
2022/03/22 10:18:34;;;;;;;28.63;13.13;;;;;;;;;;5006534;28;20041;-72
2022/03/22 10:21:01;;;;;;;30.13;12.85;;;;;;;;;;5007162;28;20038;-72
2022/03/22 10:23:27;;;;;;;28.13;12.77;;;;;;;;;;5008129;28;20077;-72
2022/03/22 10:26:02;;;;;;;27.05;12.80;;;;;;;;;;5003792;28;20045;-72
2022/03/22 10:28:27;;;;;;;32.95;12.85;;;;;;;;;;5008327;28;20807;-71
2022/03/22 10:30:59;;;;;;;27.13;12.60;;;;;;;;;;5003379;28;20124;-71
2022/03/22 10:33:24;;;;;;;27.23;12.02;;;;;;;;;;5000701;28;20578;-72
2022/03/22 10:35:50;;;;;;;23.98;12.68;;;;;;;;;;5005883;28;20034;-71
2022/03/22 10:38:19;;;;;;;28.70;12.95;;;;;;;;;;4999284;28;20045;-72
2022/03/22 10:40:45;;;;;;;23.83;12.20;;;;;;;;;;5001136;28;20040;-72
2022/03/22 10:43:19;;;;;;;24.35;12.10;;;;;;;;;;4973982;28;20065;-71
2022/03/22 10:45:47;;;;;;;26.55;12.18;;;;;;;;;;4997747;28;20038;-72
2022/03/22 10:48:22;;;;;;;25.17;12.32;;;;;;;;;;5003992;28;20042;-71
2022/03/22 10:50:48;;;;;;;25.83;12.43;;;;;;;;;;5005779;28;20050;-72
2022/03/22 10:53:16;;;;;;;25.98;12.90;;;;;;;;;;5002855;28;20037;-72
2022/03/22 10:55:43;;;;;;;30.65;12.75;;;;;;;;;;5005029;28;20507;-72
2022/03/22 10:58:10;;;;;;;30.10;12.02;;;;;;;;;;5005938;28;20609;-72
2022/03/22 11:00:36;;;;;;;26.25;11.70;;;;;;;;;;4998500;28;20096;-71
2022/03/22 11:03:05;;;;;;;24.50;12.27;;;;;;;;;;4999732;28;20038;-72
2022/03/22 11:05:32;;;;;;;22.92;11.95;;;;;;;;;;5011272;28;20541;-72
2022/03/22 11:07:57;;;;;;;24.33;11.68;;;;;;;;;;5014007;28;20449;-72
2022/03/22 11:10:29;;;;;;;29.13;13.02;;;;;;;;;;5005901;28;20658;-72
2022/03/22 11:12:57;;;;;;;25.95;12.15;;;;;;;;;;5000748;28;20553;-72
2022/03/22 11:15:24;;;;;;;28.40;12.57;;;;;;;;;;4995986;28;20034;-72
2022/03/22 11:17:51;;;;;;;32.03;12.48;;;;;;;;;;4984641;28;20096;-72
2022/03/22 11:20:17;;;;;;;28.08;12.57;;;;;;;;;;4980242;28;20042;-71
2022/03/22 11:22:49;;;;;;;28.67;12.60;;;;;;;;;;4988515;28;20022;-72
2022/03/22 11:25:18;;;;;;;28.17;13.18;;;;;;;;;;4987406;28;20056;-71
2022/03/22 11:27:56;;;;;;;29.48;12.95;;;;;;;;;;4987749;28;20468;-72
2022/03/22 11:30:22;;;;;;;24.55;11.95;;;;;;;;;;4974893;28;20070;-71
2022/03/22 11:35:31;;;;;;;29.50;13.40;;;;;;;;;;4980529;28;20045;-72
2022/03/22 11:38:00;;;;;;;27.65;11.80;;;;;;;;;;4974724;28;20118;-71
2022/03/22 11:43:13;;;;;;;32.75;13.75;;;;;;;;;;4974987;28;20046;-72
2022/03/22 11:45:50;;;;;;;26.88;12.55;;;;;;;;;;4983790;28;20057;-72
2022/03/22 11:48:16;;;;;;;24.83;12.02;;;;;;;;;;4988389;28;20088;-72
2022/03/22 11:50:43;;;;;;;25.15;12.27;;;;;;;;;;4993231;28;20103;-71
2022/03/22 11:53:16;;;;;;;24.73;11.48;;;;;;;;;;5010898;28;20108;-71
2022/03/22 11:55:42;;;;;;;33.55;13.18;;;;;;;;;;5008480;28;20041;-72
2022/03/22 11:58:09;;;;;;;29.75;13.68;;;;;;;;;;5005722;28;20423;-71
2022/03/22 12:00:57;;;;;;;27.88;12.20;;;;;;;;;;4999953;28;20107;-71
2022/03/22 12:03:29;;;;;;;28.73;12.13;;;;;;;;;;5002076;28;20145;-71
2022/03/22 12:05:55;;;;;;;25.45;12.35;;;;;;;;;;5005904;28;20049;-72
2022/03/22 12:08:20;;;;;;;29.38;11.98;;;;;;;;;;5005559;28;20046;-71
2022/03/22 12:10:50;;;;;;;23.60;12.13;;;;;;;;;;5001305;28;20030;-71
2022/03/22 12:13:16;;;;;;;24.75;12.02;;;;;;;;;;4999760;28;20403;-71
2022/03/22 12:15:42;;;;;;;28.30;12.30;;;;;;;;;;5009693;28;20066;-71
2022/03/22 12:18:09;;;;;;;25.73;12.18;;;;;;;;;;5011201;28;20045;-71
2022/03/22 12:20:35;;;;;;;25.65;11.43;;;;;;;;;;5021238;28;20064;-71
2022/03/22 12:23:00;;;;;;;28.88;12.35;;;;;;;;;;4995704;28;20427;-71
2022/03/22 12:25:28;;;;;;;31.25;12.18;;;;;;;;;;5002309;28;20034;-71
2022/03/22 12:28:07;;;;;;;24.27;11.30;;;;;;;;;;5002644;28;20645;-71
2022/03/22 12:30:35;;;;;;;26.35;11.68;;;;;;;;;;5007164;28;20037;-71
2022/03/22 12:33:21;;;;;;;23.92;10.45;;;;;;;;;;5010015;28;20034;-71
2022/03/22 12:35:48;;;;;;;23.75;10.80;;;;;;;;;;5006949;28;20439;-71
2022/03/22 12:38:15;;;;;;;25.63;10.80;;;;;;;;;;4997084;28;20066;-72
2022/03/22 12:40:42;;;;;;;23.02;10.38;;;;;;;;;;5009793;28;20029;-71
2022/03/22 12:43:11;;;;;;;22.73;10.85;;;;;;;;;;5031043;28;20060;-71
2022/03/22 12:45:42;;;;;;;20.55;9.73;;;;;;;;;;5015393;28;20584;-71
2022/03/22 12:48:07;;;;;;;22.10;10.55;;;;;;;;;;5008535;28;20032;-71
2022/03/22 12:50:33;;;;;;;25.10;10.50;;;;;;;;;;5007029;28;20048;-72
2022/03/22 12:52:58;;;;;;;22.77;10.88;;;;;;;;;;4994117;28;20554;-71
2022/03/22 12:55:25;;;;;;;25.25;11.18;;;;;;;;;;5001779;28;20505;-72
2022/03/22 12:57:56;;;;;;;22.30;10.30;;;;;;;;;;5009678;28;20094;-71
2022/03/22 13:00:33;;;;;;;22.27;10.75;;;;;;;;;;5005917;28;20058;-71
2022/03/22 13:03:08;;;;;;;22.65;10.45;;;;;;;;;;5004438;28;20049;-71
2022/03/22 13:05:39;;;;;;;24.45;10.57;;;;;;;;;;5004552;28;20096;-72
2022/03/22 13:08:11;;;;;;;23.48;10.45;;;;;;;;;;5028547;28;20542;-72
2022/03/22 13:13:20;;;;;;;26.88;10.20;;;;;;;;;;5008848;28;20044;-71
2022/03/22 13:15:53;;;;;;;23.45;9.75;;;;;;;;;;4992137;28;20117;-72
2022/03/22 13:18:19;;;;;;;19.10;9.40;;;;;;;;;;4972951;28;20194;-71
2022/03/22 13:20:45;;;;;;;23.25;9.95;;;;;;;;;;4978034;28;20057;-71
2022/03/22 13:23:15;;;;;;;20.20;8.98;;;;;;;;;;4980288;28;20039;-72
2022/03/22 13:25:42;;;;;;;18.30;8.85;;;;;;;;;;4978455;28;20030;-71
2022/03/22 13:28:09;;;;;;;22.08;8.57;;;;;;;;;;4984856;28;20047;-71
2022/03/22 13:30:37;;;;;;;17.60;8.38;;;;;;;;;;4977489;28;20068;-71
2022/03/22 13:33:22;;;;;;;16.40;8.73;;;;;;;;;;4986897;28;20043;-72
2022/03/22 13:35:53;;;;;;;19.48;8.70;;;;;;;;;;4978291;28;20050;-71
2022/03/22 13:38:18;;;;;;;21.17;8.90;;;;;;;;;;4990319;28;20186;-71
2022/03/22 13:40:45;;;;;;;21.23;9.38;;;;;;;;;;4993889;28;20030;-72
2022/03/22 13:43:11;;;;;;;19.48;8.77;;;;;;;;;;5012832;28;20030;-71
2022/03/22 13:45:41;;;;;;;23.23;10.05;;;;;;;;;;5008710;28;20037;-71
2022/03/22 13:48:13;;;;;;;19.92;9.70;;;;;;;;;;4996962;28;20419;-71
2022/03/22 13:50:42;;;;;;;24.05;12.02;;;;;;;;;;4988076;28;20112;-71
2022/03/22 13:53:15;;;;;;;25.25;10.45;;;;;;;;;;4970156;28;20110;-71
2022/03/22 13:55:45;;;;;;;21.15;10.27;;;;;;;;;;4973164;28;20026;-71
2022/03/22 13:58:19;;;;;;;27.48;10.20;;;;;;;;;;5001583;28;20460;-71
2022/03/22 14:00:47;;;;;;;30.27;10.55;;;;;;;;;;4985250;28;20105;-72
2022/03/22 14:03:13;;;;;;;21.52;10.73;;;;;;;;;;4987608;28;20070;-71
2022/03/22 14:05:40;;;;;;;24.35;10.70;;;;;;;;;;4994315;28;20034;-71
2022/03/22 14:08:06;;;;;;;25.08;10.93;;;;;;;;;;5000280;28;22862;-71
2022/03/22 14:10:32;;;;;;;24.40;10.88;;;;;;;;;;5009336;28;20112;-71
2022/03/22 14:12:58;;;;;;;25.40;11.60;;;;;;;;;;5008288;28;20466;-71
2022/03/22 14:15:24;;;;;;;20.85;10.75;;;;;;;;;;5008496;28;20117;-71
2022/03/22 14:17:50;;;;;;;22.10;10.68;;;;;;;;;;5007651;28;20057;-72
2022/03/22 14:20:20;;;;;;;24.83;11.38;;;;;;;;;;5007782;28;20053;-71
2022/03/22 14:22:48;;;;;;;23.58;11.05;;;;;;;;;;5008505;28;20030;-71
2022/03/22 14:25:15;;;;;;;24.75;11.02;;;;;;;;;;5009266;28;20537;-71
2022/03/22 14:27:42;;;;;;;24.15;10.93;;;;;;;;;;5009122;28;20037;-71
2022/03/22 14:30:14;;;;;;;24.63;12.13;;;;;;;;;;5001445;28;20093;-71
2022/03/22 14:32:41;;;;;;;23.02;11.25;;;;;;;;;;5004143;28;20038;-71
2022/03/22 14:37:52;;;;;;;26.02;11.45;;;;;;;;;;5003892;28;20029;-71
2022/03/22 14:40:18;;;;;;;25.05;12.02;;;;;;;;;;5006999;28;20026;-71
2022/03/22 14:42:44;;;;;;;25.02;11.90;;;;;;;;;;5012337;28;20038;-71
2022/03/22 14:45:11;;;;;;;25.55;11.73;;;;;;;;;;5009164;28;20041;-71
2022/03/22 14:47:37;;;;;;;22.30;11.20;;;;;;;;;;4992404;28;20112;-71
2022/03/22 14:50:06;;;;;;;21.65;11.25;;;;;;;;;;5007828;28;20091;-71
2022/03/22 14:55:19;;;;;;;52.40;28.77;;;;;;;;;;5002722;28;20084;-71
2022/03/22 15:00:29;;;;;;;29.83;10.93;;;;;;;;;;4988586;28;20550;-72
2022/03/22 15:02:56;;;;;;;22.73;10.73;;;;;;;;;;4982633;28;20049;-71
2022/03/22 15:05:33;;;;;;;23.38;11.25;;;;;;;;;;4982651;28;20431;-71